Time;durP1;ratioP1;P1;durP2;ratioP2;P2;SDS_P1;SDS_P2;PMS_P1;PMS_P2;Temp;Humidity;BMP_temperature;BMP_pressure;BME280_temperature;BME280_humidity;BME280_pressure;Samples;Min_cycle;Max_cycle;Signal;HPM_P1;HPM_P2
2023/07/08 00:01:09;;;;;;;1.83;1.43;;;;;;;;;;5112269;28;20431;-58
2023/07/08 00:03:36;;;;;;;2.50;1.80;;;;;;;;;;5112992;28;20019;-57
2023/07/08 00:06:02;;;;;;;4.20;2.73;;;;;;;;;;5112351;28;20051;-58
2023/07/08 00:08:29;;;;;;;2.37;1.57;;;;;;;;;;5112799;28;20042;-57
2023/07/08 00:10:56;;;;;;;2.00;1.63;;;;;;;;;;5111294;28;20020;-58
2023/07/08 00:13:23;;;;;;;3.33;1.73;;;;;;;;;;5107339;28;20039;-58
2023/07/08 00:15:50;;;;;;;8.27;3.10;;;;;;;;;;5106996;28;20038;-58
2023/07/08 00:18:17;;;;;;;5.40;2.20;;;;;;;;;;5107266;28;20055;-58
2023/07/08 00:20:46;;;;;;;5.67;2.10;;;;;;;;;;5108257;28;20031;-58
2023/07/08 00:23:13;;;;;;;5.63;2.20;;;;;;;;;;5112226;28;20418;-58
2023/07/08 00:25:40;;;;;;;2.57;1.63;;;;;;;;;;5112318;28;20027;-59
2023/07/08 00:28:11;;;;;;;2.63;1.63;;;;;;;;;;5112615;28;20020;-59
2023/07/08 00:30:38;;;;;;;3.80;2.00;;;;;;;;;;5112324;28;20023;-59
2023/07/08 00:33:06;;;;;;;3.67;2.60;;;;;;;;;;5111344;28;20051;-59
2023/07/08 00:35:33;;;;;;;4.37;2.30;;;;;;;;;;5106787;28;20059;-59
2023/07/08 00:38:12;;;;;;;3.47;1.90;;;;;;;;;;5107062;28;20046;-59
2023/07/08 00:40:39;;;;;;;3.27;2.30;;;;;;;;;;5107017;28;20826;-58
2023/07/08 00:43:07;;;;;;;3.40;2.23;;;;;;;;;;5107444;28;20406;-58
2023/07/08 00:45:40;;;;;;;5.77;2.73;;;;;;;;;;5111830;28;20023;-59
2023/07/08 00:48:23;;;;;;;3.80;2.10;;;;;;;;;;5112530;28;20019;-59
2023/07/08 00:50:50;;;;;;;4.53;2.70;;;;;;;;;;5112128;28;20031;-59
2023/07/08 00:53:31;;;;;;;1.40;1.20;;;;;;;;;;5112194;28;20042;-59
2023/07/08 00:56:07;;;;;;;2.83;2.10;;;;;;;;;;5109853;28;20031;-59
2023/07/08 00:58:35;;;;;;;5.03;2.87;;;;;;;;;;5107025;28;20043;-59
2023/07/08 01:01:04;;;;;;;13.13;2.77;;;;;;;;;;5108924;28;20051;-59
2023/07/08 01:03:31;;;;;;;4.33;2.80;;;;;;;;;;5110135;28;20038;-59
2023/07/08 01:06:02;;;;;;;12.40;2.97;;;;;;;;;;5112164;28;20030;-60
2023/07/08 01:08:30;;;;;;;7.37;2.93;;;;;;;;;;5114019;28;20023;-60
2023/07/08 01:11:01;;;;;;;3.47;1.93;;;;;;;;;;5115965;28;20046;-59
2023/07/08 01:13:29;;;;;;;6.87;2.90;;;;;;;;;;5114499;28;20473;-60
2023/07/08 01:15:56;;;;;;;14.17;3.07;;;;;;;;;;5114900;28;20393;-59
2023/07/08 01:18:24;;;;;;;6.60;3.57;;;;;;;;;;5112210;28;20035;-59
2023/07/08 01:20:55;;;;;;;3.53;2.63;;;;;;;;;;5110279;28;20032;-59
2023/07/08 01:23:22;;;;;;;5.97;3.77;;;;;;;;;;5110030;28;20098;-59
2023/07/08 01:25:49;;;;;;;6.67;3.70;;;;;;;;;;5109794;28;20027;-59
2023/07/08 01:28:15;;;;;;;4.97;3.83;;;;;;;;;;5112054;28;20474;-59
2023/07/08 01:30:43;;;;;;;6.03;4.10;;;;;;;;;;5115142;28;20051;-59
2023/07/08 01:33:18;;;;;;;6.03;4.23;;;;;;;;;;5115508;28;20022;-59
2023/07/08 01:35:46;;;;;;;5.30;3.70;;;;;;;;;;5115131;28;20036;-59
2023/07/08 01:38:14;;;;;;;8.27;3.87;;;;;;;;;;5115242;28;20103;-59
2023/07/08 01:40:49;;;;;;;6.90;4.60;;;;;;;;;;5113265;28;20019;-59
2023/07/08 01:43:16;;;;;;;10.82;5.75;;;;;;;;;;5109495;28;20099;-59
2023/07/08 01:45:43;;;;;;;5.33;3.50;;;;;;;;;;5109520;28;20058;-59
2023/07/08 01:48:15;;;;;;;6.73;4.13;;;;;;;;;;5110047;28;20030;-59
2023/07/08 01:50:57;;;;;;;4.57;3.60;;;;;;;;;;5111526;28;20077;-59
2023/07/08 01:53:29;;;;;;;7.10;4.03;;;;;;;;;;5114677;28;20050;-59
2023/07/08 01:55:55;;;;;;;6.00;4.10;;;;;;;;;;5115089;28;20030;-59
2023/07/08 01:58:22;;;;;;;9.00;4.40;;;;;;;;;;5114994;28;20089;-59
2023/07/08 02:00:49;;;;;;;4.37;3.67;;;;;;;;;;5114937;28;20103;-59
2023/07/08 02:03:16;;;;;;;5.77;4.37;;;;;;;;;;5112038;28;20032;-59
2023/07/08 02:05:43;;;;;;;5.07;3.60;;;;;;;;;;5109598;28;20106;-60
2023/07/08 02:08:10;;;;;;;7.77;4.67;;;;;;;;;;5109315;28;20485;-60
2023/07/08 02:10:38;;;;;;;5.67;4.37;;;;;;;;;;5109185;28;20100;-59
2023/07/08 02:13:04;;;;;;;7.17;4.47;;;;;;;;;;5111044;28;20504;-59
2023/07/08 02:15:31;;;;;;;4.57;3.43;;;;;;;;;;5114677;28;20445;-59
2023/07/08 02:17:58;;;;;;;6.07;3.90;;;;;;;;;;5114642;28;20031;-59
2023/07/08 02:20:25;;;;;;;7.33;4.30;;;;;;;;;;5114504;28;20046;-59
2023/07/08 02:22:52;;;;;;;5.97;3.87;;;;;;;;;;5114697;28;20035;-59
2023/07/08 02:25:18;;;;;;;7.70;4.40;;;;;;;;;;5112456;28;20076;-59
2023/07/08 02:27:45;;;;;;;9.73;5.23;;;;;;;;;;5108990;28;20274;-59
2023/07/08 02:30:12;;;;;;;6.13;3.97;;;;;;;;;;5108498;28;20028;-59
2023/07/08 02:32:39;;;;;;;4.83;3.70;;;;;;;;;;5108972;28;20047;-59
2023/07/08 02:35:06;;;;;;;6.07;4.27;;;;;;;;;;5109763;28;20034;-59
2023/07/08 02:37:33;;;;;;;7.17;4.83;;;;;;;;;;5114393;28;20023;-59
2023/07/08 02:40:00;;;;;;;12.97;5.10;;;;;;;;;;5114180;28;20031;-59
2023/07/08 02:42:27;;;;;;;6.37;3.73;;;;;;;;;;5114043;28;20031;-59
2023/07/08 02:44:54;;;;;;;6.50;4.70;;;;;;;;;;5114288;28;20020;-59
2023/07/08 02:47:20;;;;;;;5.87;4.03;;;;;;;;;;5112457;28;20028;-59
2023/07/08 02:49:47;;;;;;;6.97;5.00;;;;;;;;;;5108240;28;20024;-56
2023/07/08 02:52:14;;;;;;;4.70;3.43;;;;;;;;;;5108648;28;20027;-56
2023/07/08 02:54:41;;;;;;;6.73;4.03;;;;;;;;;;5108411;28;20140;-56
2023/07/08 02:57:08;;;;;;;3.97;3.10;;;;;;;;;;5108773;28;20096;-57
2023/07/08 02:59:34;;;;;;;12.97;3.20;;;;;;;;;;5113581;28;20027;-57
2023/07/08 03:02:01;;;;;;;4.27;3.10;;;;;;;;;;5113891;28;20024;-57
2023/07/08 03:04:29;;;;;;;5.07;3.63;;;;;;;;;;5113244;28;20019;-56
2023/07/08 03:06:56;;;;;;;4.40;3.50;;;;;;;;;;5113549;28;20042;-56
2023/07/08 03:09:23;;;;;;;5.93;4.40;;;;;;;;;;5113198;28;20028;-57
2023/07/08 03:11:50;;;;;;;7.73;3.70;;;;;;;;;;5108113;28;20020;-56
2023/07/08 03:14:16;;;;;;;9.33;4.37;;;;;;;;;;5108147;28;20117;-56
2023/07/08 03:16:43;;;;;;;6.40;3.73;;;;;;;;;;5108068;28;20023;-56
2023/07/08 03:19:14;;;;;;;5.77;4.00;;;;;;;;;;5107972;28;20039;-57
2023/07/08 03:21:42;;;;;;;5.90;4.23;;;;;;;;;;5112970;28;20099;-56
2023/07/08 03:24:12;;;;;;;4.97;3.43;;;;;;;;;;5112584;28;20028;-57
2023/07/08 03:26:39;;;;;;;6.87;4.30;;;;;;;;;;5113300;28;20385;-57
2023/07/08 03:29:09;;;;;;;9.77;4.37;;;;;;;;;;5113524;28;20028;-57
2023/07/08 03:31:36;;;;;;;5.67;4.30;;;;;;;;;;5112935;28;20084;-56
2023/07/08 03:34:03;;;;;;;6.27;3.80;;;;;;;;;;5107542;28;20058;-56
2023/07/08 03:36:30;;;;;;;5.87;4.20;;;;;;;;;;5107240;28;20506;-57
2023/07/08 03:38:58;;;;;;;5.03;3.83;;;;;;;;;;5107835;28;20030;-56
2023/07/08 03:41:25;;;;;;;6.73;4.73;;;;;;;;;;5107594;28;20041;-56
2023/07/08 03:43:52;;;;;;;4.13;3.40;;;;;;;;;;5112462;28;20050;-56
2023/07/08 03:46:20;;;;;;;4.10;3.27;;;;;;;;;;5113042;28;20084;-56
2023/07/08 03:48:47;;;;;;;12.13;3.77;;;;;;;;;;5112954;28;20381;-56
2023/07/08 03:51:25;;;;;;;5.50;3.83;;;;;;;;;;5113089;28;20806;-56
2023/07/08 03:53:52;;;;;;;4.43;3.57;;;;;;;;;;5113073;28;20480;-56
2023/07/08 03:56:19;;;;;;;11.93;4.27;;;;;;;;;;5107009;28;20036;-56
2023/07/08 03:58:46;;;;;;;3.27;2.70;;;;;;;;;;5107302;28;20023;-57
2023/07/08 04:01:17;;;;;;;5.97;3.60;;;;;;;;;;5107473;28;20028;-56
2023/07/08 04:03:44;;;;;;;5.87;3.43;;;;;;;;;;5107222;28;20024;-56
2023/07/08 04:06:11;;;;;;;7.47;4.23;;;;;;;;;;5112016;28;20504;-57
2023/07/08 04:08:37;;;;;;;5.97;4.13;;;;;;;;;;5112450;28;20100;-57
2023/07/08 04:11:04;;;;;;;4.67;3.33;;;;;;;;;;5112801;28;20054;-56
2023/07/08 04:13:31;;;;;;;6.43;3.60;;;;;;;;;;5112618;28;20055;-56
2023/07/08 04:16:01;;;;;;;5.30;2.93;;;;;;;;;;5111838;28;20415;-56
2023/07/08 04:18:28;;;;;;;7.33;3.83;;;;;;;;;;5107323;28;20057;-56
2023/07/08 04:20:55;;;;;;;6.77;2.60;;;;;;;;;;5107290;28;20028;-57
2023/07/08 04:23:26;;;;;;;4.33;2.17;;;;;;;;;;5106815;28;20038;-57
2023/07/08 04:25:54;;;;;;;4.60;2.90;;;;;;;;;;5106698;28;20020;-57
2023/07/08 04:28:20;;;;;;;7.87;3.57;;;;;;;;;;5111640;28;20024;-56
2023/07/08 04:30:48;;;;;;;5.07;3.80;;;;;;;;;;5112516;28;20080;-56
2023/07/08 04:33:15;;;;;;;3.53;2.67;;;;;;;;;;5112408;28;20024;-57
2023/07/08 04:35:43;;;;;;;3.53;2.90;;;;;;;;;;5114188;28;20019;-57
2023/07/08 04:38:21;;;;;;;4.67;3.27;;;;;;;;;;5116283;28;20059;-56
2023/07/08 04:40:48;;;;;;;5.77;3.17;;;;;;;;;;5110750;28;20129;-57
2023/07/08 04:43:15;;;;;;;21.80;3.03;;;;;;;;;;5111123;27;20374;-57
2023/07/08 04:45:43;;;;;;;6.77;3.57;;;;;;;;;;5111114;28;20031;-56
2023/07/08 04:48:18;;;;;;;4.47;2.87;;;;;;;;;;5111128;28;20037;-56
2023/07/08 04:50:45;;;;;;;;;;;;;;;;;;5115199;28;20476;-57
2023/07/08 04:53:12;;;;;;;6.23;3.10;;;;;;;;;;5115313;28;19908;-57
2023/07/08 04:55:47;;;;;;;4.20;2.83;;;;;;;;;;5116360;28;20059;-56
2023/07/08 04:58:14;;;;;;;4.63;3.03;;;;;;;;;;5116278;28;20026;-56
2023/07/08 05:00:41;;;;;;;5.77;3.13;;;;;;;;;;5115847;28;20020;-56
2023/07/08 05:03:08;;;;;;;2.93;2.30;;;;;;;;;;5110791;28;20024;-57
2023/07/08 05:05:34;;;;;;;5.17;3.07;;;;;;;;;;5109699;28;20096;-57
2023/07/08 05:08:01;;;;;;;3.70;2.60;;;;;;;;;;5109967;28;20411;-56
2023/07/08 05:10:28;;;;;;;4.33;2.87;;;;;;;;;;5110493;28;20027;-57
2023/07/08 05:12:55;;;;;;;6.50;3.23;;;;;;;;;;5114722;28;20031;-56
2023/07/08 05:15:21;;;;;;;4.87;2.37;;;;;;;;;;5115732;28;20164;-56
2023/07/08 05:17:48;;;;;;;4.13;2.70;;;;;;;;;;5115170;28;20027;-56
2023/07/08 05:20:15;;;;;;;3.47;2.27;;;;;;;;;;5116019;28;20015;-56
2023/07/08 05:22:42;;;;;;;4.07;2.90;;;;;;;;;;5115480;28;20034;-56
2023/07/08 05:25:10;;;;;;;6.83;3.10;;;;;;;;;;5110089;28;20028;-56
2023/07/08 05:27:36;;;;;;;4.20;3.00;;;;;;;;;;5109046;28;20028;-56
2023/07/08 05:30:04;;;;;;;4.10;2.80;;;;;;;;;;5109804;28;20035;-56
2023/07/08 05:32:31;;;;;;;5.37;3.40;;;;;;;;;;5109972;28;20019;-56
2023/07/08 05:34:58;;;;;;;4.80;3.40;;;;;;;;;;5113300;28;20106;-56
2023/07/08 05:37:25;;;;;;;3.63;2.87;;;;;;;;;;5115415;28;20354;-56
2023/07/08 05:39:55;;;;;;;3.23;2.37;;;;;;;;;;5114790;28;20425;-56
2023/07/08 05:42:22;;;;;;;4.20;3.00;;;;;;;;;;5115192;28;20156;-56
2023/07/08 05:44:51;;;;;;;3.37;2.60;;;;;;;;;;5115549;28;20039;-56
2023/07/08 05:47:18;;;;;;;4.40;2.90;;;;;;;;;;5110485;28;20077;-56
2023/07/08 05:49:45;;;;;;;9.40;4.90;;;;;;;;;;5109795;28;20020;-57
2023/07/08 05:52:12;;;;;;;6.80;3.80;;;;;;;;;;5109578;28;20031;-56
2023/07/08 05:54:39;;;;;;;13.53;4.80;;;;;;;;;;5109815;28;20040;-56
2023/07/08 05:57:07;;;;;;;7.10;5.10;;;;;;;;;;5112572;28;20024;-56
2023/07/08 05:59:35;;;;;;;8.30;5.00;;;;;;;;;;5115026;28;20073;-56
2023/07/08 06:02:01;;;;;;;7.73;5.10;;;;;;;;;;5115295;28;20016;-56
2023/07/08 06:04:28;;;;;;;8.97;4.87;;;;;;;;;;5114848;28;20027;-56
2023/07/08 06:06:55;;;;;;;5.27;4.23;;;;;;;;;;5114846;28;20023;-56
2023/07/08 06:09:22;;;;;;;8.60;4.77;;;;;;;;;;5111467;28;20074;-56
2023/07/08 06:11:49;;;;;;;5.27;4.10;;;;;;;;;;5109403;28;20405;-56
2023/07/08 06:14:15;;;;;;;14.97;4.53;;;;;;;;;;5109072;28;20039;-56
2023/07/08 06:16:42;;;;;;;5.87;3.70;;;;;;;;;;5108974;28;20094;-56
2023/07/08 06:19:09;;;;;;;5.67;3.33;;;;;;;;;;5111870;28;20027;-55
2023/07/08 06:21:36;;;;;;;5.20;4.00;;;;;;;;;;5114780;28;20027;-56
2023/07/08 06:24:03;;;;;;;5.40;2.90;;;;;;;;;;5114442;28;20028;-56
2023/07/08 06:26:30;;;;;;;5.33;4.00;;;;;;;;;;5114720;28;20020;-57
2023/07/08 06:28:56;;;;;;;4.87;3.27;;;;;;;;;;5113996;28;20085;-56
2023/07/08 06:31:23;;;;;;;7.00;5.00;;;;;;;;;;5111699;28;20020;-57
2023/07/08 06:33:50;;;;;;;7.33;3.90;;;;;;;;;;5108715;28;20036;-56
2023/07/08 06:36:17;;;;;;;10.23;3.77;;;;;;;;;;5108910;28;20027;-57
2023/07/08 06:38:43;;;;;;;7.53;4.80;;;;;;;;;;5109050;28;20026;-56
2023/07/08 06:41:10;;;;;;;6.33;4.03;;;;;;;;;;5110579;28;20102;-56
2023/07/08 06:43:37;;;;;;;5.53;4.43;;;;;;;;;;5114318;28;20016;-56
2023/07/08 06:46:06;;;;;;;8.97;5.90;;;;;;;;;;5114063;28;20381;-56
2023/07/08 06:48:33;;;;;;;10.43;5.73;;;;;;;;;;5114050;28;20059;-56
2023/07/08 06:50:59;;;;;;;4.70;3.47;;;;;;;;;;5113737;28;20035;-56
2023/07/08 06:53:26;;;;;;;5.07;4.20;;;;;;;;;;5111585;28;20347;-57
2023/07/08 06:55:53;;;;;;;7.10;4.57;;;;;;;;;;5108567;28;20023;-56
2023/07/08 06:58:20;;;;;;;8.13;4.73;;;;;;;;;;5107571;28;20027;-56
2023/07/08 07:00:46;;;;;;;5.53;4.07;;;;;;;;;;5108463;28;20020;-57
2023/07/08 07:03:13;;;;;;;6.40;4.20;;;;;;;;;;5109300;28;20084;-56
2023/07/08 07:05:40;;;;;;;5.50;4.13;;;;;;;;;;5113794;28;20028;-56
2023/07/08 07:08:07;;;;;;;8.57;5.03;;;;;;;;;;5113719;28;20032;-56
2023/07/08 07:10:35;;;;;;;5.40;4.03;;;;;;;;;;5113731;28;20173;-56
2023/07/08 07:13:01;;;;;;;5.90;4.07;;;;;;;;;;5113413;28;20027;-56
2023/07/08 07:15:30;;;;;;;5.40;3.97;;;;;;;;;;5111877;28;20118;-57
2023/07/08 07:17:57;;;;;;;6.40;4.70;;;;;;;;;;5108076;28;20607;-56
2023/07/08 07:20:24;;;;;;;5.37;3.90;;;;;;;;;;5107805;28;20020;-56
2023/07/08 07:22:51;;;;;;;4.67;3.47;;;;;;;;;;5107858;28;20038;-57
2023/07/08 07:25:18;;;;;;;7.13;4.77;;;;;;;;;;5108663;28;20036;-56
2023/07/08 07:27:45;;;;;;;16.00;4.03;;;;;;;;;;5113399;28;20015;-56
2023/07/08 07:30:15;;;;;;;6.97;4.27;;;;;;;;;;5113578;28;20024;-56
2023/07/08 07:32:42;;;;;;;11.93;5.07;;;;;;;;;;5113309;28;20103;-56
2023/07/08 07:35:14;;;;;;;6.23;4.00;;;;;;;;;;5112800;28;20032;-56
2023/07/08 07:37:42;;;;;;;8.63;5.50;;;;;;;;;;5111835;28;20061;-56
2023/07/08 07:40:15;;;;;;;5.17;3.23;;;;;;;;;;5107681;28;20540;-56
2023/07/08 07:42:42;;;;;;;11.03;4.43;;;;;;;;;;5107420;28;20465;-56
2023/07/08 07:45:09;;;;;;;6.43;4.77;;;;;;;;;;5107730;28;20043;-56
2023/07/08 07:47:36;;;;;;;6.83;4.03;;;;;;;;;;5108077;28;20035;-56
2023/07/08 07:50:04;;;;;;;4.87;3.73;;;;;;;;;;5112487;28;20019;-56
2023/07/08 07:52:30;;;;;;;4.57;3.53;;;;;;;;;;5112758;28;20362;-56
2023/07/08 07:54:57;;;;;;;4.77;3.77;;;;;;;;;;5112979;28;20669;-56
2023/07/08 07:57:24;;;;;;;9.50;3.93;;;;;;;;;;5113044;27;20023;-56
2023/07/08 07:59:51;;;;;;;6.43;4.37;;;;;;;;;;5111450;28;20110;-56
2023/07/08 08:02:18;;;;;;;5.93;3.27;;;;;;;;;;5107409;28;20495;-56
2023/07/08 08:04:45;;;;;;;6.20;4.77;;;;;;;;;;5107353;28;20039;-56
2023/07/08 08:07:11;;;;;;;13.17;4.17;;;;;;;;;;5107502;28;20027;-56
2023/07/08 08:09:38;;;;;;;5.40;3.97;;;;;;;;;;5106753;28;20081;-56
2023/07/08 08:12:05;;;;;;;5.47;3.77;;;;;;;;;;5112565;28;20067;-57
2023/07/08 08:14:32;;;;;;;4.50;3.13;;;;;;;;;;5112667;28;20032;-56
2023/07/08 08:16:58;;;;;;;5.97;4.43;;;;;;;;;;5112478;28;20023;-56
2023/07/08 08:19:25;;;;;;;9.10;4.40;;;;;;;;;;5112731;28;20036;-56
2023/07/08 08:21:52;;;;;;;4.73;3.57;;;;;;;;;;5112198;28;20090;-56
2023/07/08 08:24:18;;;;;;;6.33;4.03;;;;;;;;;;5106826;28;20039;-57
2023/07/08 08:26:45;;;;;;;14.80;5.60;;;;;;;;;;5106882;28;20015;-56
2023/07/08 08:29:12;;;;;;;7.27;5.00;;;;;;;;;;5107061;28;20035;-56
2023/07/08 08:31:39;;;;;;;4.50;3.73;;;;;;;;;;5106771;28;20109;-56
2023/07/08 08:34:05;;;;;;;4.50;3.70;;;;;;;;;;5111929;28;20035;-56
2023/07/08 08:36:32;;;;;;;5.83;4.33;;;;;;;;;;5112537;28;20035;-56
2023/07/08 08:38:59;;;;;;;4.37;3.20;;;;;;;;;;5112540;28;20012;-56
2023/07/08 08:41:31;;;;;;;8.00;5.33;;;;;;;;;;5112271;28;20027;-56
2023/07/08 08:43:58;;;;;;;4.60;3.37;;;;;;;;;;5112602;28;20020;-56
2023/07/08 08:46:28;;;;;;;9.00;4.80;;;;;;;;;;5106617;28;20426;-56
2023/07/08 08:48:55;;;;;;;6.97;4.27;;;;;;;;;;5107079;28;20504;-56
2023/07/08 08:51:22;;;;;;;5.57;4.20;;;;;;;;;;5106875;28;20035;-56
2023/07/08 08:53:49;;;;;;;5.03;4.17;;;;;;;;;;5106794;28;20079;-56
2023/07/08 08:56:20;;;;;;;11.80;4.33;;;;;;;;;;5111441;28;20095;-56
2023/07/08 08:58:59;;;;;;;5.07;3.40;;;;;;;;;;5112028;28;20024;-56
2023/07/08 09:01:26;;;;;;;17.70;4.77;;;;;;;;;;5112280;28;20024;-56
2023/07/08 09:04:04;;;;;;;12.60;4.87;;;;;;;;;;5112232;28;20024;-56
2023/07/08 09:06:33;;;;;;;13.30;5.73;;;;;;;;;;5111568;28;20024;-56
2023/07/08 09:09:23;;;;;;;7.37;4.43;;;;;;;;;;5105783;28;20034;-56
2023/07/08 09:11:57;;;;;;;6.83;4.47;;;;;;;;;;5096048;28;20047;-56
2023/07/08 09:14:28;;;;;;;5.15;3.90;;;;;;;;;;5106812;28;20032;-56
2023/07/08 09:17:10;;;;;;;8.03;4.57;;;;;;;;;;5107091;28;20020;-56
2023/07/08 09:19:40;;;;;;;11.90;5.33;;;;;;;;;;5112182;28;20035;-56
2023/07/08 09:22:12;;;;;;;6.67;4.20;;;;;;;;;;5114179;28;20049;-57
2023/07/08 09:24:42;;;;;;;6.73;4.93;;;;;;;;;;5115761;27;20027;-56
2023/07/08 09:27:09;;;;;;;5.27;3.60;;;;;;;;;;5115342;28;20125;-56
2023/07/08 09:29:35;;;;;;;4.03;3.00;;;;;;;;;;5112823;28;20038;-56
2023/07/08 09:32:14;;;;;;;6.33;4.80;;;;;;;;;;5110192;28;20022;-56
2023/07/08 09:34:46;;;;;;;5.83;4.13;;;;;;;;;;5110055;28;20554;-56
2023/07/08 09:37:23;;;;;;;5.17;3.87;;;;;;;;;;5110231;28;20019;-56
2023/07/08 09:39:50;;;;;;;5.37;3.27;;;;;;;;;;5111956;28;20027;-56
2023/07/08 09:42:16;;;;;;;6.83;4.93;;;;;;;;;;5115349;28;20026;-56
2023/07/08 09:44:45;;;;;;;4.83;3.17;;;;;;;;;;5115451;28;20027;-56
2023/07/08 09:47:22;;;;;;;10.43;5.67;;;;;;;;;;5115291;28;20427;-56
2023/07/08 09:49:49;;;;;;;5.30;3.87;;;;;;;;;;5114891;28;20027;-57
2023/07/08 09:52:15;;;;;;;7.43;4.10;;;;;;;;;;5112436;28;20102;-56
2023/07/08 09:54:42;;;;;;;6.83;4.27;;;;;;;;;;5109356;28;20047;-56
2023/07/08 09:57:13;;;;;;;7.20;4.00;;;;;;;;;;5109657;28;20098;-56
2023/07/08 09:59:45;;;;;;;11.27;4.57;;;;;;;;;;5109319;28;20027;-57
2023/07/08 10:02:25;;;;;;;5.10;3.57;;;;;;;;;;5111691;28;20011;-56
2023/07/08 10:05:00;;;;;;;6.10;4.37;;;;;;;;;;5114826;28;20023;-56
2023/07/08 10:07:29;;;;;;;9.90;4.38;;;;;;;;;;5114997;28;20107;-56
2023/07/08 10:09:57;;;;;;;8.27;3.23;;;;;;;;;;5114843;28;20028;-56
2023/07/08 10:12:24;;;;;;;5.03;3.73;;;;;;;;;;5114807;28;20024;-56
2023/07/08 10:14:53;;;;;;;5.13;3.30;;;;;;;;;;5110877;27;20023;-56
2023/07/08 10:17:20;;;;;;;4.23;3.37;;;;;;;;;;5109138;28;20481;-56
2023/07/08 10:19:47;;;;;;;10.80;4.80;;;;;;;;;;5109032;28;20011;-57
2023/07/08 10:22:34;;;;;;;4.33;3.40;;;;;;;;;;5109316;28;20028;-56
2023/07/08 10:25:23;;;;;;;4.30;2.63;;;;;;;;;;5112516;27;20039;-56
2023/07/08 10:27:57;;;;;;;4.80;2.93;;;;;;;;;;5114364;28;20031;-56
2023/07/08 10:30:30;;;;;;;5.00;3.83;;;;;;;;;;5114541;28;20077;-56
2023/07/08 10:33:17;;;;;;;7.10;4.57;;;;;;;;;;5114245;28;20036;-56
2023/07/08 10:36:04;;;;;;;6.53;4.23;;;;;;;;;;5113939;27;20032;-56
2023/07/08 10:39:05;;;;;;;7.07;4.37;;;;;;;;;;5076924;28;20047;-56
2023/07/08 10:41:52;;;;;;;8.33;4.50;;;;;;;;;;5025736;28;20036;-56
2023/07/08 10:44:25;;;;;;;27.23;4.50;;;;;;;;;;5081225;27;20106;-56
2023/07/08 10:46:59;;;;;;;2.97;2.57;;;;;;;;;;5111378;28;20030;-56
2023/07/08 10:49:32;;;;;;;6.18;4.93;;;;;;;;;;5113670;28;20024;-56
2023/07/08 10:51:58;;;;;;;4.53;3.47;;;;;;;;;;5113681;28;20079;-56
2023/07/08 10:54:43;;;;;;;5.33;3.20;;;;;;;;;;5114050;28;20032;-56
2023/07/08 10:57:28;;;;;;;9.63;5.25;;;;;;;;;;5114250;28;20468;-55
2023/07/08 10:59:55;;;;;;;10.00;6.32;;;;;;;;;;5109170;28;20031;-56
2023/07/08 11:02:25;;;;;;;6.27;5.50;;;;;;;;;;5108636;28;20068;-56
2023/07/08 11:04:51;;;;;;;9.17;7.70;;;;;;;;;;5108137;28;20035;-56
2023/07/08 11:07:36;;;;;;;11.80;10.17;;;;;;;;;;5108140;28;20023;-56
2023/07/08 11:10:12;;;;;;;22.20;15.48;;;;;;;;;;5112795;28;20369;-56
2023/07/08 11:12:45;;;;;;;14.60;12.43;;;;;;;;;;5113790;28;20027;-56
2023/07/08 11:15:25;;;;;;;10.67;8.40;;;;;;;;;;5113088;28;20583;-56
2023/07/08 11:18:10;;;;;;;13.70;8.47;;;;;;;;;;5112813;28;20544;-56
2023/07/08 11:20:36;;;;;;;;;;;;;;;;;;5111371;28;20031;-56
2023/07/08 11:23:14;;;;;;;10.27;7.07;;;;;;;;;;5107710;28;19912;-56
2023/07/08 11:25:41;;;;;;;14.00;8.43;;;;;;;;;;5107340;28;20081;-56
2023/07/08 11:28:13;;;;;;;10.37;7.63;;;;;;;;;;5107638;28;20032;-56
2023/07/08 11:30:42;;;;;;;20.97;4.93;;;;;;;;;;5108806;28;20023;-56
2023/07/08 11:33:11;;;;;;;8.23;5.47;;;;;;;;;;5113346;28;20495;-56
2023/07/08 11:35:43;;;;;;;6.83;4.77;;;;;;;;;;5113293;28;20457;-55
2023/07/08 11:38:21;;;;;;;9.33;5.53;;;;;;;;;;5113113;28;20024;-56
2023/07/08 11:41:04;;;;;;;6.50;5.27;;;;;;;;;;5112625;28;20031;-55
2023/07/08 11:43:43;;;;;;;5.60;4.63;;;;;;;;;;5110337;28;20023;-56
2023/07/08 11:46:13;;;;;;;13.27;5.30;;;;;;;;;;5107724;28;20020;-56
2023/07/08 11:48:43;;;;;;;6.63;4.60;;;;;;;;;;5107483;28;20028;-56
2023/07/08 11:51:10;;;;;;;16.57;4.20;;;;;;;;;;5107167;28;20385;-57
2023/07/08 11:53:38;;;;;;;7.17;4.70;;;;;;;;;;5109926;28;20115;-56
2023/07/08 11:56:25;;;;;;;7.43;5.20;;;;;;;;;;5112911;28;20501;-56
2023/07/08 11:58:53;;;;;;;6.17;4.57;;;;;;;;;;5112669;28;20024;-56
2023/07/08 12:01:33;;;;;;;22.63;5.17;;;;;;;;;;5112326;28;20015;-57
2023/07/08 12:04:04;;;;;;;6.33;4.47;;;;;;;;;;5113106;28;20023;-55
2023/07/08 12:06:30;;;;;;;8.40;4.63;;;;;;;;;;5108828;28;20027;-55
2023/07/08 12:08:58;;;;;;;5.30;4.43;;;;;;;;;;5107323;28;20028;-56
2023/07/08 12:11:31;;;;;;;4.43;3.27;;;;;;;;;;5106933;28;20111;-56
2023/07/08 12:14:02;;;;;;;4.67;3.90;;;;;;;;;;5107150;28;20111;-56
2023/07/08 12:16:30;;;;;;;6.27;4.47;;;;;;;;;;5110682;28;20050;-56
2023/07/08 12:18:57;;;;;;;5.10;4.10;;;;;;;;;;5112664;28;20110;-55
2023/07/08 12:21:27;;;;;;;4.33;3.20;;;;;;;;;;5112702;28;20039;-55
2023/07/08 12:23:53;;;;;;;7.20;4.30;;;;;;;;;;5112309;28;20043;-55
2023/07/08 12:26:20;;;;;;;4.37;3.60;;;;;;;;;;5112224;28;20117;-56
2023/07/08 12:28:47;;;;;;;8.53;4.03;;;;;;;;;;5108436;28;20016;-56
2023/07/08 12:31:21;;;;;;;5.77;4.67;;;;;;;;;;5107142;28;20029;-57
2023/07/08 12:33:48;;;;;;;8.30;4.33;;;;;;;;;;5106417;28;20052;-55
2023/07/08 12:36:26;;;;;;;5.30;3.90;;;;;;;;;;5106746;28;20028;-56
2023/07/08 12:38:54;;;;;;;7.83;5.33;;;;;;;;;;5110522;28;20517;-55
2023/07/08 12:41:25;;;;;;;4.03;3.13;;;;;;;;;;5112244;28;20027;-55
2023/07/08 12:43:52;;;;;;;5.53;3.00;;;;;;;;;;5112579;28;20094;-56
2023/07/08 12:46:21;;;;;;;6.50;4.13;;;;;;;;;;5112400;28;20031;-56
2023/07/08 12:48:48;;;;;;;10.70;5.30;;;;;;;;;;5112310;28;20052;-55
2023/07/08 12:51:16;;;;;;;6.67;4.23;;;;;;;;;;5106592;28;20035;-56
2023/07/08 12:53:43;;;;;;;9.47;5.90;;;;;;;;;;5106449;28;20020;-56
2023/07/08 12:56:10;;;;;;;6.70;4.77;;;;;;;;;;5107660;28;20051;-55
2023/07/08 12:58:45;;;;;;;8.13;5.87;;;;;;;;;;5110863;28;20118;-55
2023/07/08 13:01:11;;;;;;;;;;;;;;;;;;5115153;28;20024;-56
2023/07/08 13:03:41;;;;;;;8.73;5.70;;;;;;;;;;5115981;28;19908;-56
2023/07/08 13:06:10;;;;;;;8.53;4.93;;;;;;;;;;5116053;28;20020;-55
2023/07/08 13:08:37;;;;;;;8.00;5.40;;;;;;;;;;5115930;28;20347;-56
2023/07/08 13:11:04;;;;;;;10.53;4.83;;;;;;;;;;5115995;28;20109;-55
2023/07/08 13:13:39;;;;;;;11.27;5.20;;;;;;;;;;5111393;28;20023;-56
2023/07/08 13:16:06;;;;;;;10.07;6.38;;;;;;;;;;5110232;28;20473;-56
2023/07/08 13:18:36;;;;;;;6.67;5.13;;;;;;;;;;5110419;28;20043;-57
2023/07/08 13:21:04;;;;;;;10.27;5.03;;;;;;;;;;5110076;28;20059;-56
2023/07/08 13:23:31;;;;;;;8.77;5.77;;;;;;;;;;5114346;27;20027;-56
2023/07/08 13:25:58;;;;;;;12.97;6.07;;;;;;;;;;5114638;28;20027;-56
2023/07/08 13:28:28;;;;;;;8.17;6.53;;;;;;;;;;5115311;28;20035;-55
2023/07/08 13:30:59;;;;;;;9.90;6.53;;;;;;;;;;5115460;28;20416;-55
2023/07/08 13:33:35;;;;;;;9.57;6.33;;;;;;;;;;5115283;28;20587;-55
2023/07/08 13:36:03;;;;;;;8.93;6.47;;;;;;;;;;5109501;28;20051;-56
2023/07/08 13:38:34;;;;;;;34.37;7.60;;;;;;;;;;5108505;28;20077;-56
2023/07/08 13:41:02;;;;;;;6.67;5.23;;;;;;;;;;5109942;28;20039;-56
2023/07/08 13:43:31;;;;;;;12.80;8.07;;;;;;;;;;5109543;28;20118;-56
2023/07/08 13:45:58;;;;;;;7.97;5.27;;;;;;;;;;5112523;28;20028;-56
2023/07/08 13:48:38;;;;;;;7.47;5.50;;;;;;;;;;5114142;28;20030;-56
2023/07/08 13:51:16;;;;;;;7.93;6.10;;;;;;;;;;5115084;28;20492;-56
2023/07/08 13:53:49;;;;;;;7.57;5.53;;;;;;;;;;5114790;28;20039;-56
2023/07/08 13:56:18;;;;;;;13.40;6.70;;;;;;;;;;5114997;28;20529;-56
2023/07/08 13:58:47;;;;;;;7.03;5.73;;;;;;;;;;5108953;27;20023;-57
2023/07/08 14:01:19;;;;;;;13.67;5.60;;;;;;;;;;5109021;28;20038;-56
2023/07/08 14:03:46;;;;;;;8.70;6.67;;;;;;;;;;5108921;28;20043;-56
2023/07/08 14:06:16;;;;;;;6.70;5.27;;;;;;;;;;5109186;28;20092;-56
2023/07/08 14:08:43;;;;;;;7.27;5.20;;;;;;;;;;5114508;28;20047;-56
2023/07/08 14:11:09;;;;;;;11.67;6.80;;;;;;;;;;5114062;28;20070;-56
2023/07/08 14:13:36;;;;;;;7.67;5.80;;;;;;;;;;5114151;28;20043;-56
2023/07/08 14:16:05;;;;;;;7.10;5.20;;;;;;;;;;5114926;28;20087;-57
2023/07/08 14:18:32;;;;;;;6.93;5.40;;;;;;;;;;5114409;28;20508;-56
2023/07/08 14:20:59;;;;;;;7.30;5.00;;;;;;;;;;5108527;28;20422;-56
2023/07/08 14:23:26;;;;;;;10.47;6.20;;;;;;;;;;5108591;28;20473;-56
2023/07/08 14:25:53;;;;;;;5.60;4.47;;;;;;;;;;5102748;28;20055;-56
2023/07/08 14:28:19;;;;;;;6.77;5.10;;;;;;;;;;5103549;28;20437;-57
2023/07/08 14:30:48;;;;;;;10.67;5.03;;;;;;;;;;5112184;28;20034;-56
2023/07/08 14:33:15;;;;;;;7.53;5.10;;;;;;;;;;5112307;27;20276;-56
2023/07/08 14:35:41;;;;;;;8.87;5.10;;;;;;;;;;5113886;28;20035;-56
2023/07/08 14:38:12;;;;;;;9.27;5.73;;;;;;;;;;5112967;28;20043;-56
2023/07/08 14:40:40;;;;;;;8.00;4.87;;;;;;;;;;5114251;28;20089;-56
2023/07/08 14:43:11;;;;;;;9.63;5.57;;;;;;;;;;5109520;28;20043;-56
2023/07/08 14:45:40;;;;;;;6.73;4.97;;;;;;;;;;5109461;28;20039;-56
2023/07/08 14:48:10;;;;;;;9.63;4.90;;;;;;;;;;5108730;28;20496;-57
2023/07/08 14:50:37;;;;;;;5.87;4.67;;;;;;;;;;5108966;28;20015;-56
2023/07/08 14:53:04;;;;;;;8.67;5.57;;;;;;;;;;5109509;28;20077;-57